Time;durP1;ratioP1;P1;durP2;ratioP2;P2;SDS_P1;SDS_P2;PMS_P1;PMS_P2;Temp;Humidity;BMP_temperature;BMP_pressure;BME280_temperature;BME280_humidity;BME280_pressure;Samples;Min_cycle;Max_cycle;Signal;HPM_P1;HPM_P2
2021/10/09 07:01:51;;;;;;;30.05;17.35;;;11.20;99.90;;;;;;6113663;23;20033;-82
2021/10/09 07:04:18;;;;;;;17.08;14.10;;;11.30;99.90;;;;;;6087381;23;20049;-82
2021/10/09 07:06:45;;;;;;;18.38;13.90;;;11.40;99.90;;;;;;6087174;23;20030;-82
2021/10/09 07:09:12;;;;;;;30.75;17.10;;;11.50;99.90;;;;;;6113016;23;20022;-82
2021/10/09 07:11:39;;;;;;;14.68;12.68;;;11.50;99.90;;;;;;6113041;23;20026;-82
2021/10/09 07:14:07;;;;;;;29.02;16.98;;;11.60;99.90;;;;;;6087583;23;20068;-83
2021/10/09 07:16:34;;;;;;;16.88;13.50;;;11.70;99.90;;;;;;6087031;23;20022;-83
2021/10/09 07:19:01;;;;;;;14.88;12.63;;;11.80;99.90;;;;;;6113377;23;20525;-82
2021/10/09 07:21:28;;;;;;;24.38;15.55;;;11.80;99.90;;;;;;6111828;23;20522;-83
2021/10/09 07:24:15;;;;;;;16.23;12.07;;;11.90;99.90;;;;;;6091351;23;20026;-82
2021/10/09 07:26:42;;;;;;;15.07;11.77;;;12.00;99.90;;;;;;6087388;23;20491;-83
2021/10/09 07:29:09;;;;;;;13.73;11.23;;;12.10;99.90;;;;;;6087090;23;20083;-83
2021/10/09 07:31:36;;;;;;;13.43;12.02;;;12.20;99.90;;;;;;6112623;23;20079;-83
2021/10/09 07:34:03;;;;;;;16.10;11.68;;;12.30;99.90;;;;;;6113383;23;20344;-83
2021/10/09 07:36:30;;;;;;;12.63;10.85;;;12.40;99.90;;;;;;6111630;23;20018;-85
2021/10/09 07:38:58;;;;;;;16.40;10.85;;;12.40;99.90;;;;;;6086539;23;20075;-84
2021/10/09 07:41:25;;;;;;;12.40;10.70;;;12.50;99.90;;;;;;6110824;23;20026;-84
2021/10/09 07:43:52;;;;;;;15.85;11.30;;;12.60;99.90;;;;;;6086852;23;20066;-84
2021/10/09 07:46:19;;;;;;;13.43;11.63;;;12.70;99.90;;;;;;6085391;23;20479;-83
2021/10/09 07:48:46;;;;;;;13.25;11.38;;;12.80;99.90;;;;;;6112247;23;20351;-83
2021/10/09 07:51:13;;;;;;;14.52;12.20;;;12.90;99.90;;;;;;6110769;23;20669;-83
2021/10/09 07:53:40;;;;;;;12.98;11.57;;;13.00;99.90;;;;;;6111994;23;20021;-82
2021/10/09 07:56:07;;;;;;;12.65;11.07;;;13.00;99.90;;;;;;6086272;23;20033;-85
2021/10/09 07:58:33;;;;;;;13.65;11.00;;;13.10;99.90;;;;;;6087126;23;20093;-83
2021/10/09 08:01:03;;;;;;;16.13;10.75;;;13.20;99.90;;;;;;6087666;23;20101;-83
2021/10/09 08:03:32;;;;;;;13.27;11.40;;;13.30;99.90;;;;;;6086344;23;20092;-84
2021/10/09 08:05:58;;;;;;;12.55;10.55;;;13.40;99.90;;;;;;6113167;23;20423;-84
2021/10/09 08:08:25;;;;;;;14.90;10.70;;;13.50;99.90;;;;;;6086132;23;20026;-83
2021/10/09 08:10:55;;;;;;;13.45;10.07;;;13.60;99.90;;;;;;6112578;23;20018;-83
2021/10/09 08:13:22;;;;;;;11.73;10.48;;;13.70;99.90;;;;;;6111617;23;20586;-84
2021/10/09 08:16:05;;;;;;;13.80;10.15;;;13.80;99.90;;;;;;6086852;23;20026;-83
2021/10/09 08:18:45;;;;;;;11.40;10.20;;;14.00;99.90;;;;;;6067705;23;20022;-83
2021/10/09 08:21:13;;;;;;;13.38;9.65;;;14.10;99.90;;;;;;6093225;23;20110;-84
2021/10/09 08:23:48;;;;;;;10.57;8.75;;;14.20;99.90;;;;;;6082959;23;20014;-82
2021/10/09 08:40:04;;;;;;;8.95;7.57;;;14.80;99.90;;;;;;6113684;23;20479;-83
2021/10/09 08:42:33;;;;;;;8.90;8.00;;;15.00;99.90;;;;;;6113700;23;20022;-82
2021/10/09 08:45:00;;;;;;;9.30;7.43;;;15.10;99.90;;;;;;6113916;23;20029;-83
2021/10/09 08:47:27;;;;;;;11.23;7.97;;;15.20;99.90;;;;;;6112129;23;20387;-83
2021/10/09 08:49:54;;;;;;;9.88;8.10;;;15.30;99.90;;;;;;6087667;23;20026;-84
2021/10/09 08:52:22;;;;;;;9.35;7.63;;;15.40;99.90;;;;;;6112069;23;20024;-83
2021/10/09 08:54:49;;;;;;;10.27;8.00;;;15.50;99.90;;;;;;6113924;23;20022;-84
2021/10/09 08:57:21;;;;;;;9.88;8.02;;;15.50;99.90;;;;;;6112617;23;20757;-82
2021/10/09 08:59:54;;;;;;;9.07;7.70;;;15.60;99.90;;;;;;6111748;23;20037;-84
2021/10/09 09:02:25;;;;;;;9.10;7.32;;;15.70;99.90;;;;;;6113653;23;20367;-86
2021/10/09 09:05:15;;;;;;;9.23;7.93;;;15.70;99.90;;;;;;6115183;23;20033;-83
2021/10/09 09:27:36;;;;;;;9.98;7.70;;;16.50;99.90;;;;;;6143473;23;20036;-86
2021/10/09 09:35:51;;;;;;;9.07;7.30;;;16.80;99.90;;;;;;6143304;23;20408;-84
2021/10/09 09:41:43;;;;;;;7.50;6.80;;;16.80;99.90;;;;;;6142760;23;20025;-84
2021/10/09 09:44:12;;;;;;;7.82;6.53;;;16.90;99.90;;;;;;6082859;23;20094;-84
2021/10/09 09:46:40;;;;;;;8.45;7.05;;;16.90;99.90;;;;;;6087376;23;20138;-85
2021/10/09 09:49:09;;;;;;;7.45;6.70;;;16.90;99.90;;;;;;6085309;23;20022;-86
2021/10/09 09:51:38;;;;;;;7.32;6.57;;;17.00;99.90;;;;;;6086191;23;20025;-84
2021/10/09 09:54:05;;;;;;;7.50;6.72;;;17.00;99.90;;;;;;6086213;23;20078;-82
2021/10/09 09:56:32;;;;;;;7.60;6.90;;;17.10;99.90;;;;;;5997699;23;20024;-85
2021/10/09 09:59:01;;;;;;;6.45;5.78;;;17.20;99.90;;;;;;5998224;23;20023;-84
2021/10/09 10:01:34;;;;;;;7.28;6.30;;;17.30;99.90;;;;;;5993296;23;20024;-86
2021/10/09 10:04:02;;;;;;;7.57;5.95;;;17.30;99.90;;;;;;5994746;23;20572;-83
2021/10/09 10:06:29;;;;;;;7.47;6.75;;;17.40;99.90;;;;;;5991255;23;20062;-83
2021/10/09 10:08:58;;;;;;;8.13;6.57;;;17.50;99.90;;;;;;5994135;23;20910;-83
2021/10/09 10:11:26;;;;;;;6.18;5.55;;;17.60;99.90;;;;;;5989909;23;20808;-83
2021/10/09 10:13:56;;;;;;;8.05;6.15;;;17.60;99.90;;;;;;5991604;23;20036;-84
2021/10/09 10:16:26;;;;;;;6.03;5.43;;;17.70;99.90;;;;;;5992743;23;25257;-84
2021/10/09 10:18:54;;;;;;;6.47;5.85;;;17.70;99.90;;;;;;5992441;23;20909;-84
2021/10/09 10:21:36;;;;;;;7.72;5.50;;;17.70;99.90;;;;;;6090979;23;20018;-83
2021/10/09 10:24:04;;;;;;;7.38;5.55;;;17.80;99.90;;;;;;6112060;23;20030;-84
2021/10/09 10:26:32;;;;;;;6.07;5.13;;;17.80;99.90;;;;;;6084167;23;20730;-84
2021/10/09 10:28:58;;;;;;;6.40;5.13;;;17.90;99.90;;;;;;6110294;23;20399;-83
2021/10/09 10:31:27;;;;;;;7.80;5.82;;;18.00;99.90;;;;;;6109051;23;20022;-82
2021/10/09 10:34:22;;;;;;;7.13;6.28;;;18.10;99.90;;;;;;6085347;23;20104;-83
2021/10/09 10:36:49;;;;;;;7.60;6.15;;;18.10;99.90;;;;;;6112435;23;20056;-81
2021/10/09 10:39:22;;;;;;;9.05;6.40;;;18.10;99.90;;;;;;6087079;23;20144;-82
2021/10/09 10:41:59;;;;;;;8.82;6.40;;;18.10;99.90;;;;;;6106914;23;20566;-83
2021/10/09 10:53:50;;;;;;;8.95;7.32;;;18.10;99.90;;;;;;6109929;23;20030;-84
2021/10/09 10:56:17;;;;;;;8.23;7.43;;;18.20;99.90;;;;;;6110852;23;20030;-84
2021/10/09 10:58:45;;;;;;;9.18;7.78;;;18.20;99.90;;;;;;6085782;23;20018;-84
2021/10/09 11:01:26;;;;;;;8.40;6.05;;;18.20;99.90;;;;;;6110221;23;20034;-84
2021/10/09 11:03:56;;;;;;;5.97;4.95;;;18.30;99.90;;;;;;6110845;23;20029;-82
2021/10/09 11:06:27;;;;;;;5.22;4.50;;;18.30;99.90;;;;;;6108268;23;20022;-84
2021/10/09 11:08:57;;;;;;;5.60;4.50;;;18.40;99.90;;;;;;6110435;23;20018;-84
2021/10/09 11:11:35;;;;;;;5.90;4.50;;;18.40;99.90;;;;;;6109572;23;20034;-82
2021/10/09 11:14:03;;;;;;;6.30;4.80;;;18.50;99.90;;;;;;6112206;23;20022;-83
2021/10/09 11:16:30;;;;;;;6.20;4.82;;;18.50;99.90;;;;;;6086143;23;20075;-83
2021/10/09 11:18:58;;;;;;;5.60;4.90;;;18.50;99.90;;;;;;6087352;23;20480;-84
2021/10/09 11:21:25;;;;;;;7.38;5.80;;;18.60;99.90;;;;;;6111537;23;20257;-83
2021/10/09 11:23:54;;;;;;;4.95;4.50;;;18.60;99.90;;;;;;6112471;23;20018;-83
2021/10/09 11:26:22;;;;;;;6.93;5.35;;;18.70;99.90;;;;;;6086575;23;20084;-83
2021/10/09 11:29:05;;;;;;;7.35;4.63;;;18.70;99.90;;;;;;6084801;23;20048;-84
2021/10/09 11:31:32;;;;;;;4.90;4.30;;;18.70;99.90;;;;;;6111894;23;20018;-82
2021/10/09 11:34:00;;;;;;;4.50;4.03;;;18.70;99.90;;;;;;6086548;23;20018;-83
2021/10/09 11:36:28;;;;;;;7.00;4.97;;;18.70;99.90;;;;;;6086766;23;20022;-83
2021/10/09 11:39:10;;;;;;;4.93;4.40;;;18.70;99.90;;;;;;6112293;23;20092;-82
2021/10/09 11:41:38;;;;;;;6.03;4.40;;;18.80;99.90;;;;;;6110621;23;20022;-83
2021/10/09 11:44:25;;;;;;;5.50;4.53;;;18.80;99.90;;;;;;6084871;23;20502;-82
2021/10/09 11:55:23;;;;;;;4.95;3.97;;;18.80;99.90;;;;;;6108586;23;20487;-82
2021/10/09 11:57:51;;;;;;;3.95;3.58;;;18.90;99.90;;;;;;6108527;23;20026;-82
2021/10/09 12:00:27;;;;;;;5.28;4.20;;;18.90;99.90;;;;;;6082891;23;20022;-84
2021/10/09 12:02:59;;;;;;;4.90;4.10;;;19.00;99.90;;;;;;6109425;23;20472;-82
2021/10/09 12:05:33;;;;;;;6.22;4.22;;;19.00;99.90;;;;;;6108183;23;20126;-82
2021/10/09 12:11:14;;;;;;;6.30;3.50;;;19.10;99.90;;;;;;6115114;23;20071;-82
2021/10/09 12:14:03;;;;;;;4.65;3.45;;;19.10;99.90;;;;;;6115678;23;20026;-82
2021/10/09 12:16:34;;;;;;;3.30;3.00;;;19.20;99.90;;;;;;6115615;23;20403;-83
2021/10/09 12:19:12;;;;;;;3.58;3.28;;;19.20;99.90;;;;;;6116137;23;20053;-83
2021/10/09 12:21:41;;;;;;;3.80;3.10;;;19.30;99.90;;;;;;6115290;23;20853;-81
2021/10/09 12:24:11;;;;;;;;;;;19.30;99.90;;;;;;6116221;23;20022;-83
2021/10/09 12:26:38;;;;;;;3.67;3.00;;;19.30;99.90;;;;;;6115561;23;19962;-83
2021/10/09 12:29:06;;;;;;;5.82;3.47;;;19.40;99.90;;;;;;6116274;23;20026;-83
2021/10/09 12:31:43;;;;;;;3.47;3.07;;;19.50;99.90;;;;;;6116810;23;20022;-84
2021/10/09 12:34:34;;;;;;;4.20;3.42;;;19.50;99.90;;;;;;6116878;23;20026;-85
2021/10/09 12:37:09;;;;;;;3.92;3.10;;;19.50;99.90;;;;;;6117585;23;20075;-83
2021/10/09 12:39:36;;;;;;;4.93;3.40;;;19.50;99.90;;;;;;6117612;23;20072;-87
2021/10/09 12:42:03;;;;;;;3.75;3.33;;;19.50;99.90;;;;;;6118783;23;20660;-83
2021/10/09 12:44:30;;;;;;;5.75;3.42;;;19.50;99.90;;;;;;6118604;23;20022;-84
2021/10/09 12:46:57;;;;;;;3.95;3.35;;;19.60;99.90;;;;;;6093752;23;20030;-84
2021/10/09 12:49:24;;;;;;;2.90;2.35;;;19.60;99.90;;;;;;6093170;23;20048;-85
2021/10/09 12:51:51;;;;;;;2.85;2.33;;;19.70;99.90;;;;;;6119366;23;20041;-84
2021/10/09 12:54:18;;;;;;;2.40;2.10;;;19.70;99.90;;;;;;6118016;23;20029;-83
2021/10/09 12:56:47;;;;;;;2.88;2.35;;;19.80;99.90;;;;;;6119022;23;20022;-84
2021/10/09 12:59:15;;;;;;;2.25;1.90;;;19.80;99.90;;;;;;6092736;23;20022;-85
2021/10/09 13:01:41;;;;;;;2.50;1.70;;;19.80;99.90;;;;;;6088043;23;20065;-84
2021/10/09 13:04:09;;;;;;;1.90;1.40;;;19.90;99.90;;;;;;6088976;23;20080;-84
2021/10/09 13:06:36;;;;;;;2.10;1.70;;;19.90;99.90;;;;;;6090445;23;20404;-84
2021/10/09 13:09:02;;;;;;;3.53;1.92;;;19.90;99.90;;;;;;6089735;23;20477;-84
2021/10/09 13:11:34;;;;;;;2.50;2.03;;;20.00;99.90;;;;;;6089053;23;20022;-84
2021/10/09 13:14:01;;;;;;;2.80;1.95;;;20.00;99.90;;;;;;6089889;23;20023;-81
2021/10/09 13:16:28;;;;;;;3.35;2.05;;;20.10;99.90;;;;;;6088777;23;20465;-83
2021/10/09 13:18:55;;;;;;;2.65;2.20;;;20.10;99.90;;;;;;6090013;23;20105;-83
2021/10/09 13:21:23;;;;;;;3.60;2.58;;;20.10;99.90;;;;;;6088616;23;20081;-83
2021/10/09 13:23:50;;;;;;;2.40;2.00;;;20.00;99.90;;;;;;6089442;23;20027;-83
2021/10/09 13:26:16;;;;;;;2.50;1.70;;;20.10;99.90;;;;;;6089270;23;20018;-84
2021/10/09 13:28:43;;;;;;;2.50;2.25;;;20.10;99.90;;;;;;6089324;23;20019;-83
2021/10/09 13:31:10;;;;;;;3.72;3.22;;;20.20;99.90;;;;;;6088937;23;20027;-83
2021/10/09 13:33:37;;;;;;;3.20;2.90;;;20.20;99.90;;;;;;6089535;23;20018;-83
2021/10/09 13:36:05;;;;;;;4.97;2.67;;;20.20;99.90;;;;;;6087521;23;20031;-83
2021/10/09 13:38:33;;;;;;;4.90;3.67;;;20.30;99.90;;;;;;6089692;23;20022;-83
2021/10/09 13:41:01;;;;;;;3.40;2.88;;;20.30;99.90;;;;;;6088471;23;20464;-86
2021/10/09 13:43:28;;;;;;;6.30;3.33;;;20.30;99.90;;;;;;6087980;23;20703;-85
2021/10/09 13:45:55;;;;;;;5.40;3.95;;;20.30;99.90;;;;;;6088947;23;20029;-88
2021/10/09 13:48:22;;;;;;;3.95;3.42;;;20.30;99.90;;;;;;6089344;23;20027;-85
2021/10/09 13:50:53;;;;;;;5.95;4.20;;;20.30;99.90;;;;;;6089872;23;20100;-84
2021/10/09 13:53:21;;;;;;;5.10;4.30;;;20.30;99.90;;;;;;6088898;23;20480;-84
2021/10/09 13:55:48;;;;;;;4.55;4.03;;;20.20;99.90;;;;;;6086902;23;20039;-84
2021/10/09 13:58:16;;;;;;;5.15;3.58;;;20.20;99.90;;;;;;6088946;23;20022;-84
2021/10/09 14:00:44;;;;;;;4.65;3.25;;;20.20;99.90;;;;;;6094458;23;20595;-83
2021/10/09 14:03:12;;;;;;;;;;;20.20;99.90;;;;;;6116867;23;20100;-82
2021/10/09 14:05:39;;;;;;;7.77;3.90;;;20.20;99.90;;;;;;6117984;23;19925;-83
2021/10/09 14:08:08;;;;;;;4.10;3.40;;;20.20;99.90;;;;;;6116992;23;20099;-84
2021/10/09 14:10:35;;;;;;;3.53;2.85;;;20.20;99.90;;;;;;6092303;23;20454;-85
2021/10/09 14:13:03;;;;;;;4.47;3.08;;;20.20;99.90;;;;;;6092210;23;20487;-84
2021/10/09 14:15:31;;;;;;;3.72;2.72;;;20.20;99.90;;;;;;6116841;23;20021;-84
2021/10/09 14:17:58;;;;;;;3.75;2.70;;;20.20;99.90;;;;;;6118795;23;20032;-83
2021/10/09 14:20:25;;;;;;;3.70;3.00;;;20.20;99.90;;;;;;6092273;23;20022;-85
2021/10/09 14:22:52;;;;;;;5.57;3.05;;;20.30;99.90;;;;;;6118070;23;20351;-82
2021/10/09 14:25:19;;;;;;;2.47;1.83;;;20.20;99.90;;;;;;6119161;23;20480;-88
2021/10/09 14:27:46;;;;;;;2.60;2.40;;;20.30;99.90;;;;;;6119091;23;20095;-89
2021/10/09 14:30:13;;;;;;;3.97;2.30;;;20.30;99.90;;;;;;6120350;23;20018;-93
2021/10/09 14:32:41;;;;;;;3.08;2.47;;;20.30;99.90;;;;;;6121076;23;20068;-92
2021/10/09 14:35:10;;;;;;;5.70;3.08;;;20.40;99.90;;;;;;6126258;23;20022;-96
2021/10/09 14:37:41;;;;;;;3.55;3.00;;;20.40;99.90;;;;;;6107556;23;20029;-95
2021/10/09 14:40:11;;;;;;;4.25;3.20;;;20.50;99.90;;;;;;6124914;22;20022;-95
2021/10/09 14:42:38;;;;;;;4.72;3.17;;;20.50;99.90;;;;;;6128447;23;20017;-95
2021/10/09 14:45:08;;;;;;;5.65;3.47;;;20.50;99.90;;;;;;6098041;23;20022;-95
2021/10/09 14:47:57;;;;;;;4.18;3.10;;;20.40;99.90;;;;;;6104046;23;20089;-93
2021/10/09 15:20:17;;;;;;;3.67;2.90;;;20.00;99.90;;;;;;6120314;23;20558;-91
2021/10/09 15:22:44;;;;;;;4.65;2.80;;;19.90;99.90;;;;;;6119906;23;20022;-87
2021/10/09 15:25:13;;;;;;;4.82;2.85;;;19.80;99.90;;;;;;6119901;23;20014;-91
2021/10/09 15:27:44;;;;;;;4.72;3.20;;;19.80;99.90;;;;;;6130230;23;20014;-95
2021/10/09 15:30:11;;;;;;;3.60;2.97;;;19.70;99.90;;;;;;6102898;23;20060;-96
2021/10/09 15:32:39;;;;;;;5.60;3.20;;;19.60;99.90;;;;;;6100371;23;20013;-96
2021/10/09 15:35:07;;;;;;;4.93;3.10;;;19.60;99.90;;;;;;6126642;23;20018;-95
2021/10/09 15:37:35;;;;;;;3.90;3.30;;;19.60;99.90;;;;;;6129899;23;20512;-96
2021/10/09 15:40:03;;;;;;;5.30;3.40;;;19.50;99.90;;;;;;6127105;23;20359;-96
2021/10/09 15:42:30;;;;;;;5.50;3.67;;;19.50;99.90;;;;;;6127978;23;20075;-93
2021/10/09 15:45:08;;;;;;;6.13;3.50;;;19.40;99.90;;;;;;6127966;23;20026;-96
2021/10/09 15:47:38;;;;;;;4.75;3.75;;;19.30;99.90;;;;;;6126660;23;20080;-95
2021/10/09 15:50:06;;;;;;;8.20;4.25;;;19.30;99.90;;;;;;6127503;23;20026;-89
2021/10/09 15:52:33;;;;;;;5.07;4.10;;;19.20;99.90;;;;;;6126733;23;20018;-91
2021/10/09 15:55:00;;;;;;;6.57;4.82;;;19.20;99.90;;;;;;6097933;23;20025;-93
2021/10/09 15:57:28;;;;;;;7.18;4.93;;;19.20;99.90;;;;;;6094566;23;20024;-90
2021/10/09 15:59:55;;;;;;;5.55;5.05;;;19.10;99.90;;;;;;6120189;23;20018;-91
2021/10/09 16:02:22;;;;;;;5.45;4.95;;;19.00;99.90;;;;;;6094185;23;20030;-92
2021/10/09 16:04:49;;;;;;;5.60;4.88;;;19.00;99.90;;;;;;6119416;23;20018;-90
2021/10/09 16:07:16;;;;;;;9.02;4.78;;;19.00;99.90;;;;;;6093451;23;20018;-89
2021/10/09 16:09:43;;;;;;;10.88;4.97;;;18.90;99.90;;;;;;6117989;23;20030;-85
2021/10/09 16:12:10;;;;;;;8.43;5.75;;;18.90;99.90;;;;;;6115247;23;20088;-84
2021/10/09 16:14:37;;;;;;;7.32;5.00;;;18.80;99.90;;;;;;6117575;23;20030;-85
2021/10/09 16:17:04;;;;;;;8.07;5.68;;;18.80;99.90;;;;;;6117188;23;20045;-82
2021/10/09 16:19:30;;;;;;;7.50;5.38;;;18.70;99.90;;;;;;6117362;23;20026;-84
2021/10/09 16:21:57;;;;;;;9.98;6.68;;;18.60;99.90;;;;;;6117882;23;20075;-84
2021/10/09 16:24:24;;;;;;;11.52;7.00;;;18.60;99.90;;;;;;6092883;23;20034;-85
2021/10/09 16:26:51;;;;;;;10.00;7.85;;;18.50;99.90;;;;;;6093802;23;20019;-85
2021/10/09 16:29:18;;;;;;;12.07;7.57;;;18.50;99.90;;;;;;6116889;23;20088;-83
2021/10/09 16:31:45;;;;;;;8.95;6.80;;;18.50;99.90;;;;;;6118559;23;20022;-86
2021/10/09 16:34:12;;;;;;;10.25;6.10;;;18.40;99.90;;;;;;6119012;23;20536;-87
2021/10/09 16:36:39;;;;;;;7.57;6.20;;;18.40;99.90;;;;;;6094850;23;20022;-86
2021/10/09 16:39:06;;;;;;;7.13;5.78;;;18.40;99.90;;;;;;6118861;23;20026;-85
2021/10/09 16:41:34;;;;;;;7.68;5.65;;;18.30;99.90;;;;;;6118905;23;20022;-87
2021/10/09 16:44:01;;;;;;;10.82;6.82;;;18.30;99.90;;;;;;6093033;23;20089;-86
2021/10/09 16:46:28;;;;;;;8.65;7.65;;;18.30;99.90;;;;;;6093422;23;20030;-88
2021/10/09 16:48:55;;;;;;;6.85;6.13;;;18.20;99.90;;;;;;6120894;23;20034;-86
2021/10/09 16:51:23;;;;;;;8.68;5.63;;;18.20;99.90;;;;;;6119735;23;20018;-87
2021/10/09 16:53:50;;;;;;;7.50;5.70;;;18.20;99.90;;;;;;6120159;23;20022;-88
2021/10/09 16:56:18;;;;;;;7.53;5.57;;;18.20;99.90;;;;;;6094220;23;20018;-87
2021/10/09 16:58:45;;;;;;;7.43;5.03;;;18.20;99.90;;;;;;6093862;23;20103;-88
2021/10/09 17:01:14;;;;;;;;;;;18.10;99.90;;;;;;6118920;23;20030;-88
2021/10/09 17:03:41;;;;;;;6.30;4.80;;;18.00;99.90;;;;;;6118422;23;19923;-86
2021/10/09 17:06:08;;;;;;;7.65;4.82;;;18.00;99.90;;;;;;6091991;23;20037;-87
2021/10/09 17:08:38;;;;;;;6.32;5.32;;;18.00;99.90;;;;;;6092495;23;20021;-85
2021/10/09 17:11:06;;;;;;;6.82;4.75;;;17.90;99.90;;;;;;6115670;23;20079;-84
2021/10/09 17:13:34;;;;;;;6.75;4.70;;;17.90;99.90;;;;;;6086688;23;20075;-83
2021/10/09 17:16:01;;;;;;;8.88;4.70;;;17.90;99.90;;;;;;6086154;23;20542;-84
2021/10/09 17:18:28;;;;;;;6.72;4.30;;;17.90;99.90;;;;;;6085377;23;20143;-84
2021/10/09 17:20:56;;;;;;;5.95;4.75;;;17.80;99.90;;;;;;6111583;23;20022;-86
2021/10/09 17:23:26;;;;;;;7.55;4.60;;;17.80;99.90;;;;;;6092420;23;20492;-85
2021/10/09 17:25:53;;;;;;;9.20;4.47;;;17.80;99.90;;;;;;6112137;23;20034;-86
2021/10/09 17:28:20;;;;;;;6.88;4.47;;;17.70;99.90;;;;;;6087185;23;20099;-86
2021/10/09 17:30:47;;;;;;;5.40;4.35;;;17.70;99.90;;;;;;6112935;23;20044;-83
2021/10/09 17:33:14;;;;;;;7.00;4.30;;;17.60;99.90;;;;;;6112762;23;20022;-86
2021/10/09 17:35:42;;;;;;;7.22;4.10;;;17.60;99.90;;;;;;6113651;23;20018;-85
2021/10/09 17:38:09;;;;;;;5.30;4.18;;;17.50;99.90;;;;;;6111341;23;20029;-86
2021/10/09 17:40:42;;;;;;;5.18;3.42;;;17.50;99.90;;;;;;6110944;23;20068;-86
2021/10/09 17:43:09;;;;;;;5.40;3.92;;;17.40;99.90;;;;;;6111166;23;20022;-87
2021/10/09 17:45:36;;;;;;;6.50;3.78;;;17.40;99.90;;;;;;6111526;23;20043;-85
2021/10/09 17:48:04;;;;;;;6.20;4.18;;;17.30;99.90;;;;;;6085350;23;20025;-84
2021/10/09 17:50:35;;;;;;;5.07;3.40;;;17.20;99.90;;;;;;6085868;23;20017;-84
2021/10/09 17:53:02;;;;;;;5.75;3.35;;;17.10;99.90;;;;;;6111397;23;20022;-85
2021/10/09 17:55:29;;;;;;;4.03;3.60;;;17.00;99.90;;;;;;6109932;23;20022;-85
2021/10/09 17:57:56;;;;;;;4.95;3.90;;;17.00;99.90;;;;;;6111812;23;20033;-90
2021/10/09 18:00:45;;;;;;;7.10;4.10;;;16.90;99.90;;;;;;6090694;23;20060;-85
2021/10/09 18:03:12;;;;;;;6.07;3.85;;;16.80;99.90;;;;;;6086442;23;20391;-86
2021/10/09 18:05:40;;;;;;;4.75;3.95;;;16.70;99.90;;;;;;6087756;23;20025;-84
2021/10/09 18:08:10;;;;;;;6.70;4.47;;;16.70;99.90;;;;;;6086838;23;20022;-84
2021/10/09 18:10:37;;;;;;;4.55;3.47;;;16.70;99.90;;;;;;6085714;23;20018;-84
2021/10/09 18:13:07;;;;;;;6.15;3.53;;;16.60;99.90;;;;;;6085081;23;20349;-87
2021/10/09 18:15:34;;;;;;;5.07;3.53;;;16.60;99.90;;;;;;6085152;23;20076;-84
2021/10/09 18:18:01;;;;;;;5.35;3.90;;;16.60;99.90;;;;;;6112001;23;20537;-82
2021/10/09 18:20:38;;;;;;;6.38;3.60;;;16.60;99.90;;;;;;6111501;23;20048;-83
2021/10/09 18:23:05;;;;;;;6.80;3.78;;;16.50;99.90;;;;;;6110975;23;20026;-84
2021/10/09 18:25:32;;;;;;;4.65;3.38;;;16.40;99.90;;;;;;6111686;23;20067;-82
2021/10/09 18:28:00;;;;;;;4.90;3.33;;;16.40;99.90;;;;;;6111624;23;20095;-81
2021/10/09 18:30:28;;;;;;;;;;;16.30;99.90;;;;;;6110634;23;20476;-84
2021/10/09 18:32:55;;;;;;;12.60;4.07;;;16.30;99.90;;;;;;6110022;23;19920;-84
2021/10/09 18:35:22;;;;;;;5.38;3.35;;;16.30;99.90;;;;;;6108069;23;20022;-84
2021/10/09 18:37:49;;;;;;;5.20;3.58;;;16.20;99.90;;;;;;6108601;23;20803;-84
2021/10/09 18:40:16;;;;;;;4.75;3.85;;;16.20;99.90;;;;;;6093441;23;20053;-86
2021/10/09 18:42:42;;;;;;;5.97;4.30;;;16.20;99.90;;;;;;6062353;23;20064;-86
2021/10/09 18:45:11;;;;;;;5.30;3.45;;;16.10;99.90;;;;;;6110442;23;20029;-85
2021/10/09 18:47:40;;;;;;;7.05;3.70;;;16.10;99.90;;;;;;6086464;23;20041;-84
2021/10/09 18:50:08;;;;;;;7.85;3.92;;;16.10;99.90;;;;;;6111534;23;20026;-85
2021/10/09 18:52:40;;;;;;;6.35;3.67;;;16.00;99.90;;;;;;6086969;23;20091;-83
2021/10/09 18:55:07;;;;;;;5.45;3.35;;;16.00;99.90;;;;;;6112911;23;20026;-86
2021/10/09 18:57:34;;;;;;;5.25;3.78;;;16.00;99.90;;;;;;6113970;23;20385;-86
2021/10/09 19:00:02;;;;;;;5.18;3.75;;;16.00;99.90;;;;;;6116028;23;20468;-86
2021/10/09 19:02:33;;;;;;;4.40;3.55;;;16.00;99.90;;;;;;6090244;23;20010;-85
2021/10/09 19:05:01;;;;;;;6.23;3.40;;;15.90;99.90;;;;;;6091155;23;20026;-87
2021/10/09 19:07:28;;;;;;;4.47;3.30;;;15.90;99.90;;;;;;6114714;23;20026;-86
2021/10/09 19:09:55;;;;;;;3.40;3.10;;;15.90;99.90;;;;;;6090549;23;20777;-85
2021/10/09 19:12:22;;;;;;;4.53;3.90;;;15.80;99.90;;;;;;6114042;23;20021;-86
2021/10/09 19:14:49;;;;;;;4.25;3.50;;;15.80;99.90;;;;;;6115638;23;20079;-85
2021/10/09 19:17:16;;;;;;;7.60;4.18;;;15.80;99.90;;;;;;6113127;23;20030;-84
2021/10/09 19:19:43;;;;;;;6.63;4.20;;;15.80;99.90;;;;;;6113805;23;20029;-85
2021/10/09 19:22:10;;;;;;;5.13;3.92;;;15.70;99.90;;;;;;6111996;23;20075;-87
2021/10/09 19:24:38;;;;;;;8.57;4.40;;;15.70;99.90;;;;;;6087806;23;20537;-84
2021/10/09 19:27:06;;;;;;;5.03;3.80;;;15.70;99.90;;;;;;6112328;23;20018;-85
2021/10/09 19:29:33;;;;;;;5.78;4.35;;;15.60;99.90;;;;;;6088758;23;20514;-85
2021/10/09 19:32:00;;;;;;;5.35;3.97;;;15.60;99.90;;;;;;6114748;23;20083;-86
2021/10/09 19:34:44;;;;;;;7.00;4.63;;;15.60;99.90;;;;;;6113301;23;20417;-87
2021/10/09 19:37:12;;;;;;;7.38;4.68;;;15.60;99.90;;;;;;6113566;23;20022;-85
2021/10/09 19:39:44;;;;;;;7.18;5.47;;;15.50;99.90;;;;;;6087730;23;20029;-85
2021/10/09 19:42:12;;;;;;;6.63;5.00;;;15.50;99.90;;;;;;6085989;23;20025;-86
2021/10/09 19:44:44;;;;;;;6.95;4.85;;;15.40;99.90;;;;;;6113488;23;20104;-84
2021/10/09 19:47:12;;;;;;;8.45;5.78;;;15.40;99.90;;;;;;6112760;23;20081;-85
2021/10/09 19:49:38;;;;;;;8.13;5.97;;;15.30;99.90;;;;;;6087873;23;21104;-84
2021/10/09 19:54:43;;;;;;;11.88;5.97;;;15.30;99.90;;;;;;6111396;23;20080;-84
2021/10/09 19:57:10;;;;;;;8.85;6.13;;;15.30;99.90;;;;;;6084983;23;20072;-87
2021/10/09 19:59:37;;;;;;;7.60;5.97;;;15.30;99.90;;;;;;6100978;23;20030;-87
2021/10/09 20:02:06;;;;;;;8.55;6.90;;;15.30;99.90;;;;;;6099119;23;20026;-82
2021/10/09 20:04:33;;;;;;;8.88;6.38;;;15.30;99.90;;;;;;6084934;23;20072;-85
2021/10/09 20:07:03;;;;;;;9.65;6.95;;;15.30;99.90;;;;;;6085809;23;20026;-85
2021/10/09 20:14:38;;;;;;;9.27;8.15;;;15.20;99.90;;;;;;6108333;23;20022;-82
2021/10/09 20:17:06;;;;;;;12.45;8.45;;;15.20;99.90;;;;;;6110519;23;20026;-83
2021/10/09 20:19:34;;;;;;;12.00;8.63;;;15.20;99.90;;;;;;6109909;23;20048;-84
2021/10/09 20:22:12;;;;;;;12.40;10.20;;;15.20;99.90;;;;;;6085718;23;20075;-84
2021/10/09 20:24:41;;;;;;;13.77;10.55;;;15.20;99.90;;;;;;6111511;23;20021;-84
2021/10/09 20:27:11;;;;;;;14.13;10.13;;;15.10;99.90;;;;;;6084687;23;20029;-82
2021/10/09 20:29:39;;;;;;;10.95;9.85;;;15.10;99.90;;;;;;6110716;23;20083;-82
2021/10/09 20:32:07;;;;;;;12.50;11.20;;;15.10;99.90;;;;;;6109820;23;20037;-80
2021/10/09 20:34:34;;;;;;;12.73;10.85;;;15.00;99.90;;;;;;6110244;23;20465;-83
2021/10/09 20:37:01;;;;;;;14.43;10.95;;;15.00;99.90;;;;;;6084801;23;20041;-85
2021/10/09 20:39:28;;;;;;;13.23;11.35;;;15.00;99.90;;;;;;6109829;23;20026;-83
2021/10/09 20:41:55;;;;;;;13.85;12.10;;;15.00;99.90;;;;;;6112216;23;20027;-83
2021/10/09 20:44:23;;;;;;;15.23;12.40;;;14.90;99.90;;;;;;6111271;23;20034;-85
2021/10/09 20:46:51;;;;;;;16.55;13.90;;;14.90;99.90;;;;;;6111084;23;20026;-83
2021/10/09 20:49:19;;;;;;;18.92;13.88;;;14.90;99.90;;;;;;6084392;23;20112;-84
2021/10/09 20:51:46;;;;;;;22.67;14.65;;;14.80;99.90;;;;;;6111890;23;20496;-84
2021/10/09 20:54:13;;;;;;;17.58;14.10;;;14.80;99.90;;;;;;6085125;23;20022;-82
2021/10/09 20:56:43;;;;;;;19.33;14.52;;;14.80;99.90;;;;;;6113881;23;20030;-83
2021/10/09 20:59:10;;;;;;;18.85;14.63;;;14.80;99.90;;;;;;6115447;23;20564;-83
2021/10/09 21:01:37;;;;;;;25.05;15.45;;;14.80;99.90;;;;;;6115861;23;20022;-84
2021/10/09 21:04:04;;;;;;;23.30;16.00;;;14.80;99.90;;;;;;6115826;23;20022;-83
2021/10/09 21:06:34;;;;;;;22.48;15.80;;;14.70;99.90;;;;;;6091875;23;20407;-86
2021/10/09 21:09:07;;;;;;;19.77;16.25;;;14.70;99.90;;;;;;6116044;23;20503;-85
2021/10/09 21:11:41;;;;;;;28.27;16.52;;;14.70;99.90;;;;;;6117323;23;20022;-82
2021/10/09 21:24:38;;;;;;;26.88;18.20;;;14.60;99.90;;;;;;6118127;23;20022;-84
2021/10/09 21:27:07;;;;;;;24.90;18.00;;;14.60;99.90;;;;;;6117225;23;20537;-82
2021/10/09 21:29:35;;;;;;;26.63;18.30;;;14.60;99.90;;;;;;6117861;23;20357;-83
2021/10/09 21:32:05;;;;;;;28.08;19.55;;;14.50;99.90;;;;;;6119252;23;20022;-83
2021/10/09 21:34:33;;;;;;;27.52;19.48;;;14.50;99.90;;;;;;6118224;23;20068;-83
2021/10/09 21:37:00;;;;;;;29.20;19.67;;;14.50;99.90;;;;;;6117985;23;20039;-82
2021/10/09 21:39:28;;;;;;;27.85;20.55;;;14.50;99.90;;;;;;6117645;23;20018;-83
2021/10/09 21:41:55;;;;;;;31.27;20.45;;;14.50;99.90;;;;;;6119237;23;20026;-82
2021/10/09 21:44:22;;;;;;;27.33;20.33;;;14.40;99.90;;;;;;6092686;23;20569;-80